createdAt,value
2019-01-17T06:09:41.724Z,2.20
2019-01-17T06:12:10.785Z,2.23
2019-01-17T06:14:39.797Z,2.40
2019-01-17T06:17:08.716Z,3.33
2019-01-17T06:19:37.532Z,4.33
2019-01-17T06:22:06.830Z,5.33
2019-01-17T06:24:35.985Z,4.10
2019-01-17T06:27:04.795Z,2.30
2019-01-17T06:29:33.656Z,1.50
2019-01-17T06:32:02.798Z,1.80
2019-01-17T06:34:31.514Z,1.10
2019-01-17T06:37:00.544Z,1.43
2019-01-17T06:39:29.405Z,1.20
2019-01-17T06:41:59.240Z,1.10
2019-01-17T06:44:28.303Z,1.33
2019-01-17T06:46:57.465Z,1.40
2019-01-17T06:49:26.292Z,0.83
2019-01-17T06:51:55.442Z,1.13
2019-01-17T06:54:24.156Z,1.70
2019-01-17T06:56:53.243Z,1.43
2019-01-17T06:59:22.223Z,1.87
2019-01-17T07:01:51.068Z,1.70
2019-01-17T07:04:20.377Z,3.77
2019-01-17T07:06:49.658Z,1.77
2019-01-17T07:09:18.395Z,0.90
2019-01-17T07:11:47.838Z,1.10
2019-01-17T07:14:16.979Z,0.90
2019-01-17T07:16:45.825Z,0.97
2019-01-17T07:19:15.532Z,0.90
2019-01-17T07:21:44.679Z,0.90
2019-01-17T07:24:13.870Z,1.40
2019-01-17T07:26:42.701Z,1.33
2019-01-17T07:29:11.537Z,1.40
2019-01-17T07:31:40.301Z,0.80
2019-01-17T07:34:09.002Z,1.23
2019-01-17T07:36:38.489Z,1.03
2019-01-17T07:39:08.076Z,1.13
2019-01-17T07:41:39.924Z,1.20
2019-01-17T07:44:08.688Z,1.10
2019-01-17T07:46:38.476Z,1.30
2019-01-17T07:49:07.181Z,1.17
2019-01-17T07:51:36.048Z,1.13
2019-01-17T07:54:05.635Z,0.90
2019-01-17T07:56:34.732Z,1.00
2019-01-17T07:59:04.244Z,1.23
2019-01-17T08:01:33.243Z,1.13
2019-01-17T08:04:02.767Z,1.70
2019-01-17T08:06:32.338Z,1.57
2019-01-17T08:09:01.818Z,1.70
2019-01-17T08:11:30.356Z,1.30
2019-01-17T08:13:59.240Z,2.83
2019-01-17T08:16:28.393Z,5.40
2019-01-17T08:18:57.222Z,6.57
2019-01-17T08:21:26.084Z,1.57
2019-01-17T08:23:54.773Z,1.97
2019-01-17T08:26:24.548Z,8.77
2019-01-17T08:28:53.879Z,182.27
2019-01-17T08:31:22.664Z,161.00
2019-01-17T08:33:51.483Z,58.17
2019-01-17T08:36:21.424Z,3.87
2019-01-17T08:38:50.136Z,5.97
2019-01-17T08:41:19.687Z,3.10
2019-01-17T08:43:48.528Z,3.47
2019-01-17T08:46:17.346Z,2.90
2019-01-17T08:48:47.056Z,3.60
2019-01-17T08:51:16.225Z,2.90
2019-01-17T08:53:44.952Z,2.90
2019-01-17T08:56:13.935Z,2.30
2019-01-17T08:58:42.726Z,1.50
2019-01-17T09:01:11.428Z,1.43
2019-01-17T09:03:40.657Z,1.53
2019-01-17T09:06:10.272Z,2.07
2019-01-17T09:08:39.094Z,1.03
2019-01-17T09:11:07.832Z,0.63
2019-01-17T09:13:36.620Z,1.10
2019-01-17T09:16:05.256Z,1.10
2019-01-17T09:18:35.052Z,1.07
2019-01-17T09:21:03.793Z,0.80
2019-01-17T09:23:33.015Z,0.77
2019-01-17T09:26:07.317Z,1.03
2019-01-17T09:28:30.883Z,0.50
2019-01-17T09:31:00.118Z,1.13
2019-01-17T09:33:30.248Z,1.43
2019-01-17T09:35:59.831Z,0.87
2019-01-17T09:38:28.543Z,1.23
2019-01-17T09:40:57.867Z,0.63
2019-01-17T09:43:26.710Z,0.70
2019-01-17T09:45:55.699Z,1.00
2019-01-17T09:48:24.873Z,0.90
2019-01-17T09:50:54.514Z,0.77
2019-01-17T09:53:23.225Z,0.90
2019-01-17T09:55:51.983Z,1.00
2019-01-17T09:58:21.177Z,0.90
2019-01-17T10:00:50.698Z,0.73
2019-01-17T10:03:20.921Z,1.03
2019-01-17T10:05:50.502Z,1.00
2019-01-17T10:08:19.613Z,1.30
2019-01-17T10:10:49.210Z,1.50
2019-01-17T10:13:18.357Z,1.60
2019-01-17T10:15:53.534Z,1.23
2019-01-17T10:19:30.899Z,1.70
2019-01-17T10:22:18.442Z,1.07
2019-01-17T10:26:02.793Z,1.10
2019-01-17T10:28:49.777Z,0.90
2019-01-17T10:31:35.559Z,0.90
2019-01-17T10:34:52.482Z,1.10
2019-01-17T10:39:38.319Z,0.97
2019-01-17T10:42:21.927Z,0.90
2019-01-17T10:47:16.152Z,0.70
2019-01-17T10:49:56.794Z,1.30
2019-01-17T10:52:50.520Z,1.10
2019-01-17T10:55:31.849Z,1.77
2019-01-17T10:58:18.276Z,1.00
2019-01-17T11:01:01.630Z,0.80
2019-01-17T11:05:49.685Z,0.63
2019-01-17T11:08:35.013Z,1.13
2019-01-17T11:13:21.971Z,1.53
2019-01-17T11:16:02.267Z,0.93
2019-01-17T11:18:45.303Z,1.30
2019-01-17T11:22:26.903Z,1.03
2019-01-17T11:26:05.931Z,1.20
2019-01-17T11:28:48.865Z,1.60
2019-01-17T11:31:41.392Z,1.40
2019-01-17T11:34:53.118Z,1.23
2019-01-17T11:38:41.280Z,1.33
2019-01-17T11:41:25.569Z,1.13
2019-01-17T11:44:09.068Z,1.40
2019-01-17T11:46:54.271Z,1.70
2019-01-17T11:50:07.959Z,1.40
2019-01-17T11:53:19.043Z,1.70
2019-01-17T11:55:58.956Z,1.30
2019-01-17T12:00:42.159Z,1.47
2019-01-17T12:03:22.504Z,1.23
2019-01-17T12:05:51.596Z,0.83
2019-01-17T12:08:20.316Z,0.80
2019-01-17T12:10:49.443Z,1.03
2019-01-17T12:13:18.160Z,1.50
2019-01-17T12:15:47.311Z,0.80
2019-01-17T12:18:16.949Z,1.20
2019-01-17T12:20:46.072Z,1.20
2019-01-17T12:23:14.985Z,1.20
2019-01-17T12:25:43.673Z,1.57
2019-01-17T12:28:12.370Z,1.43
2019-01-17T12:30:42.941Z,1.50
2019-01-17T12:33:12.044Z,1.53
2019-01-17T12:35:40.797Z,1.20
2019-01-17T12:38:10.741Z,1.23
2019-01-17T12:40:39.889Z,1.53
2019-01-17T12:43:10.554Z,1.63
2019-01-17T12:45:39.470Z,1.50
2019-01-17T12:48:10.358Z,1.73
2019-01-17T12:50:39.921Z,1.80
2019-01-17T12:53:08.655Z,1.00
2019-01-17T12:55:37.505Z,1.40
2019-01-17T12:58:06.274Z,1.10
2019-01-17T13:00:37.060Z,1.57
2019-01-17T13:03:06.208Z,1.60
2019-01-17T13:05:35.402Z,1.20
2019-01-17T13:08:05.161Z,1.27
2019-01-17T13:10:34.018Z,1.60
2019-01-17T13:13:05.156Z,1.40
2019-01-17T13:15:34.054Z,1.67
2019-01-17T13:18:02.763Z,1.23
2019-01-17T13:20:32.595Z,1.40
2019-01-17T13:23:02.088Z,1.77
2019-01-17T13:25:30.840Z,1.73
2019-01-17T13:28:00.052Z,1.37
2019-01-17T13:30:30.792Z,1.40
2019-01-17T13:33:00.328Z,1.13
2019-01-17T13:35:29.181Z,1.17
2019-01-17T13:37:58.317Z,1.40
2019-01-17T13:40:27.448Z,1.67
2019-01-17T13:42:57.754Z,1.20
2019-01-17T13:45:27.592Z,1.30
2019-01-17T13:47:56.394Z,1.17
2019-01-17T13:50:25.519Z,0.97
2019-01-17T13:52:54.728Z,0.70
2019-01-17T13:55:25.776Z,1.10
2019-01-17T13:57:54.946Z,1.13
2019-01-17T14:00:24.093Z,1.00
2019-01-17T14:02:52.842Z,1.60
2019-01-17T14:05:21.699Z,0.93
2019-01-17T14:07:50.587Z,1.27
2019-01-17T14:10:19.983Z,1.03
2019-01-17T14:12:48.859Z,0.87
2019-01-17T14:15:20.108Z,0.90
2019-01-17T14:17:49.188Z,1.50
2019-01-17T14:20:18.043Z,1.17
2019-01-17T14:22:46.862Z,1.03
2019-01-17T14:25:16.612Z,0.90
2019-01-17T14:27:47.011Z,0.77
2019-01-17T14:30:22.979Z,0.70
2019-01-17T14:32:51.886Z,0.70
2019-01-17T14:35:21.021Z,1.20
2019-01-17T14:37:49.865Z,1.13
2019-01-17T14:40:18.707Z,2.33
2019-01-17T14:42:48.654Z,0.97
2019-01-17T14:45:18.435Z,1.43
2019-01-17T14:47:47.804Z,1.23
2019-01-17T14:50:19.235Z,1.57
2019-01-17T14:52:48.095Z,1.43
2019-01-17T14:55:17.273Z,1.50
2019-01-17T14:57:46.563Z,0.90
2019-01-17T15:00:17.878Z,0.70
2019-01-17T15:02:46.934Z,1.13
2019-01-17T15:05:15.791Z,0.90
2019-01-17T15:07:44.633Z,0.80
2019-01-17T15:10:16.196Z,0.73
2019-01-17T15:12:44.981Z,0.83
2019-01-17T15:15:14.141Z,0.90
2019-01-17T15:17:42.982Z,0.80
2019-01-17T15:20:14.566Z,0.70
2019-01-17T15:22:44.502Z,3.60
2019-01-17T15:25:13.931Z,47.87
2019-01-17T15:27:42.771Z,1.03
2019-01-17T15:30:18.312Z,0.70
2019-01-17T15:32:47.389Z,1.07
2019-01-17T15:35:17.064Z,0.77
2019-01-17T15:37:45.952Z,0.87
2019-01-17T15:40:21.845Z,1.53
2019-01-17T15:42:50.673Z,1.20
2019-01-17T15:45:19.791Z,3.30
2019-01-17T15:47:48.650Z,2.50
2019-01-17T15:50:17.857Z,1.50
2019-01-17T15:52:47.029Z,1.87
2019-01-17T15:55:16.169Z,2.67
2019-01-17T15:57:45.072Z,1.43
2019-01-17T16:00:20.668Z,0.90
2019-01-17T16:02:49.577Z,2.00
2019-01-17T16:05:18.416Z,1.30
2019-01-17T16:07:50.415Z,1.87
2019-01-17T16:10:20.056Z,1.20
2019-01-17T16:12:48.938Z,1.63
2019-01-17T16:15:20.255Z,1.43
2019-01-17T16:17:49.066Z,2.07
2019-01-17T16:20:18.975Z,2.23
2019-01-17T16:22:48.083Z,2.20
2019-01-17T16:25:16.871Z,1.80
2019-01-17T16:27:52.751Z,1.93
2019-01-17T16:30:18.537Z,2.10
2019-01-17T16:32:47.523Z,2.00
2019-01-17T16:35:16.472Z,1.53
2019-01-17T16:37:45.698Z,2.10
2019-01-17T16:40:15.534Z,1.23
2019-01-17T16:42:44.810Z,1.40
2019-01-17T16:45:15.745Z,1.87
2019-01-17T16:47:44.618Z,2.30
2019-01-17T16:50:17.608Z,2.30
2019-01-17T16:52:48.256Z,1.70
2019-01-17T16:55:17.679Z,1.77
2019-01-17T16:57:49.173Z,1.47
2019-01-17T17:00:33.412Z,1.30
2019-01-17T17:03:02.144Z,1.70
2019-01-17T17:05:30.978Z,1.20
2019-01-17T17:08:00.055Z,2.50
2019-01-17T17:10:29.291Z,1.07
2019-01-17T17:12:59.094Z,8.53
2019-01-17T17:15:28.304Z,2.30
2019-01-17T17:17:58.389Z,1.60
2019-01-17T17:20:27.479Z,1.37
2019-01-17T17:22:56.928Z,0.90
2019-01-17T17:25:27.215Z,0.73
2019-01-17T17:27:56.914Z,1.20
2019-01-17T17:30:27.838Z,1.50
2019-01-17T17:32:57.180Z,1.20
2019-01-17T17:35:26.351Z,1.30
2019-01-17T17:37:55.668Z,2.10
2019-01-17T17:40:30.207Z,1.57
2019-01-17T17:42:59.185Z,1.37
2019-01-17T17:45:30.181Z,1.60
2019-01-17T17:48:00.755Z,1.30
2019-01-17T17:50:29.967Z,1.63
2019-01-17T17:53:00.827Z,3.67
2019-01-17T17:55:29.647Z,5.10
2019-01-17T17:58:02.110Z,5.17
2019-01-17T18:00:33.698Z,4.50
2019-01-17T18:03:02.816Z,1.93
2019-01-17T18:05:31.713Z,2.40
2019-01-17T18:08:00.587Z,2.20
2019-01-17T18:10:30.002Z,2.13
2019-01-17T18:12:58.991Z,2.37
2019-01-17T18:15:27.986Z,2.90
2019-01-17T18:17:56.796Z,1.83
2019-01-17T18:20:25.923Z,2.07
2019-01-17T18:22:55.556Z,2.17
2019-01-17T18:25:24.323Z,2.00
2019-01-17T18:27:53.748Z,2.20
2019-01-17T18:30:23.527Z,2.27
2019-01-17T18:32:54.015Z,1.77
2019-01-17T18:35:23.626Z,1.70
2019-01-17T18:37:52.449Z,1.90
2019-01-17T18:40:22.117Z,1.97
2019-01-17T18:42:51.196Z,1.93
2019-01-17T18:45:21.859Z,2.03
2019-01-17T18:47:50.624Z,2.47
2019-01-17T18:50:23.565Z,2.13
2019-01-17T18:52:52.575Z,1.80
2019-01-17T18:55:22.347Z,2.00
2019-01-17T18:57:51.480Z,1.13
2019-01-17T19:00:25.540Z,1.80
2019-01-17T19:02:54.459Z,2.30
2019-01-17T19:05:23.810Z,1.40
2019-01-17T19:07:52.652Z,2.20
2019-01-17T19:10:21.518Z,1.87
2019-01-17T19:12:51.155Z,1.63
2019-01-17T19:15:22.322Z,11.70
2019-01-17T19:17:51.494Z,2.70
2019-01-17T19:20:21.340Z,2.00
2019-01-17T19:22:50.710Z,3.67
2019-01-17T19:25:19.714Z,1.60
2019-01-17T19:27:49.479Z,5.43
2019-01-17T19:30:21.168Z,2.63
2019-01-17T19:32:50.088Z,2.40
2019-01-17T19:35:18.860Z,2.07
2019-01-17T19:37:48.281Z,2.00
2019-01-17T19:40:19.504Z,2.00
2019-01-17T19:42:48.823Z,1.77
2019-01-17T19:45:18.632Z,1.73
2019-01-17T19:47:47.475Z,1.50
2019-01-17T19:50:20.446Z,1.90
2019-01-17T19:52:49.343Z,1.03
2019-01-17T19:55:19.209Z,0.80
2019-01-17T19:57:48.065Z,1.00
2019-01-17T20:00:17.283Z,1.03
2019-01-17T20:02:46.148Z,0.60
2019-01-17T20:05:17.016Z,0.83
2019-01-17T20:07:45.796Z,1.20
2019-01-17T20:10:18.278Z,1.50
2019-01-17T20:12:47.222Z,1.37
2019-01-17T20:15:16.262Z,1.80
2019-01-17T20:17:45.111Z,2.30
2019-01-17T20:20:14.544Z,1.83
2019-01-17T20:22:46.656Z,1.47
2019-01-17T20:25:15.391Z,1.73
2019-01-17T20:27:44.191Z,1.80
2019-01-17T20:30:16.365Z,2.17
2019-01-17T20:32:45.687Z,2.10
2019-01-17T20:35:14.559Z,2.00
2019-01-17T20:37:43.364Z,2.10
2019-01-17T20:40:14.402Z,1.70
2019-01-17T20:42:44.099Z,1.77
2019-01-17T20:45:12.975Z,1.93
2019-01-17T20:47:43.386Z,1.77
2019-01-17T20:50:15.028Z,1.60
2019-01-17T20:52:43.446Z,1.50
2019-01-17T20:55:12.607Z,1.33
2019-01-17T20:57:43.148Z,1.87
2019-01-17T21:00:15.855Z,1.33
2019-01-17T21:02:44.953Z,1.90
2019-01-17T21:05:14.712Z,1.47
2019-01-17T21:07:43.966Z,1.53
2019-01-17T21:10:15.178Z,1.93
2019-01-17T21:12:44.065Z,1.40
2019-01-17T21:15:13.313Z,1.40
2019-01-17T21:17:42.058Z,1.23
2019-01-17T21:20:12.443Z,1.53
2019-01-17T21:22:41.296Z,1.50
2019-01-17T21:25:12.831Z,1.50
2019-01-17T21:27:42.524Z,1.20
2019-01-17T21:30:14.812Z,1.57
2019-01-17T21:32:44.364Z,1.67
2019-01-17T21:35:14.583Z,1.40
2019-01-17T21:37:44.363Z,1.30
2019-01-17T21:40:15.778Z,3.60
2019-01-17T21:42:44.527Z,1.80
2019-01-17T21:45:15.347Z,1.57
2019-01-17T21:47:44.135Z,1.20
2019-01-17T21:50:15.734Z,1.43
2019-01-17T21:52:44.599Z,1.60
2019-01-17T21:55:13.470Z,1.37
